createdAt,value
2018-04-08T00:00:04.780Z,958.56
2018-04-08T00:01:04.776Z,958.55
2018-04-08T00:02:04.777Z,958.59
2018-04-08T00:03:04.773Z,958.49
2018-04-08T00:04:04.774Z,958.52
2018-04-08T00:05:04.775Z,958.50
2018-04-08T00:06:04.778Z,958.55
2018-04-08T00:07:04.770Z,958.48
2018-04-08T00:08:04.771Z,958.51
2018-04-08T00:09:04.773Z,958.44
2018-04-08T00:10:04.774Z,958.46
2018-04-08T00:11:04.779Z,958.40
2018-04-08T00:12:04.769Z,958.38
2018-04-08T00:13:04.770Z,958.36
2018-04-08T00:14:04.765Z,958.37
2018-04-08T00:15:04.769Z,958.39
2018-04-08T00:16:04.768Z,958.37
2018-04-08T00:17:04.766Z,958.42
2018-04-08T00:18:04.762Z,958.39
2018-04-08T00:19:04.762Z,958.32
2018-04-08T00:20:04.760Z,958.31
2018-04-08T00:21:04.765Z,958.30
2018-04-08T00:22:04.759Z,958.30
2018-04-08T00:23:04.892Z,958.28
2018-04-08T00:24:04.758Z,958.27
2018-04-08T00:25:04.758Z,958.22
2018-04-08T00:26:04.753Z,958.24
2018-04-08T00:27:04.754Z,958.26
2018-04-08T00:28:04.753Z,958.22
2018-04-08T00:29:04.764Z,958.25
2018-04-08T00:30:04.752Z,958.28
2018-04-08T00:31:04.753Z,958.26
2018-04-08T00:32:04.749Z,958.20
2018-04-08T00:33:04.757Z,958.20
2018-04-08T00:34:04.748Z,958.21
2018-04-08T00:35:04.749Z,958.21
2018-04-08T00:36:04.746Z,958.23
2018-04-08T00:37:04.746Z,958.17
2018-04-08T00:38:04.744Z,958.18
2018-04-08T00:39:04.743Z,958.17
2018-04-08T00:40:04.747Z,958.15
2018-04-08T00:41:04.740Z,958.16
2018-04-08T00:42:04.740Z,958.17
2018-04-08T00:43:04.740Z,958.12
2018-04-08T00:44:04.737Z,958.08
2018-04-08T00:45:04.740Z,958.06
2018-04-08T00:46:04.737Z,958.06
2018-04-08T00:47:04.740Z,958.03
2018-04-08T00:48:04.734Z,958.06
2018-04-08T00:49:04.734Z,958.03
2018-04-08T00:50:04.736Z,958.01
2018-04-08T00:51:04.732Z,958.00
2018-04-08T00:52:04.730Z,958.00
2018-04-08T00:53:04.731Z,958.04
2018-04-08T00:54:04.729Z,958.02
2018-04-08T00:55:04.728Z,958.00
2018-04-08T00:56:04.730Z,957.97
2018-04-08T00:57:04.728Z,958.02
2018-04-08T00:58:04.726Z,957.95
2018-04-08T00:59:04.725Z,957.96
2018-04-08T01:00:04.728Z,957.94
2018-04-08T01:01:04.724Z,957.89
2018-04-08T01:02:04.720Z,957.91
2018-04-08T01:03:04.721Z,957.94
2018-04-08T01:04:04.719Z,957.90
2018-04-08T01:05:04.718Z,957.92
2018-04-08T01:06:04.716Z,957.89
2018-04-08T01:07:04.714Z,957.91
2018-04-08T01:08:04.714Z,957.89
2018-04-08T01:09:04.717Z,957.85
2018-04-08T01:10:04.711Z,957.88
2018-04-08T01:11:04.711Z,957.86
2018-04-08T01:12:04.708Z,957.88
2018-04-08T01:13:04.725Z,957.87
2018-04-08T01:14:04.709Z,957.83
2018-04-08T01:15:04.708Z,957.86
2018-04-08T01:16:04.706Z,957.81
2018-04-08T01:17:04.708Z,957.82
2018-04-08T01:18:04.700Z,957.79
2018-04-08T01:19:04.698Z,957.80
2018-04-08T01:20:04.698Z,957.71
2018-04-08T01:21:04.698Z,957.76
2018-04-08T01:22:04.696Z,957.72
2018-04-08T01:23:04.693Z,957.71
2018-04-08T01:24:04.692Z,957.71
2018-04-08T01:25:04.691Z,957.71
2018-04-08T01:26:04.689Z,957.71
2018-04-08T01:27:04.687Z,957.64
2018-04-08T01:28:04.691Z,957.61
2018-04-08T01:29:04.684Z,957.59
2018-04-08T01:30:04.685Z,957.64
2018-04-08T01:31:04.682Z,957.62
2018-04-08T01:32:04.679Z,957.55
2018-04-08T01:33:04.679Z,957.59
2018-04-08T01:34:04.676Z,957.59
2018-04-08T01:35:04.676Z,957.60
2018-04-08T01:36:04.672Z,957.60
2018-04-08T01:37:04.672Z,957.59
2018-04-08T01:38:04.671Z,957.56
2018-04-08T01:39:04.668Z,957.64
2018-04-08T01:40:04.666Z,957.60
2018-04-08T01:41:04.671Z,957.59
2018-04-08T01:42:04.667Z,957.63
2018-04-08T01:43:04.663Z,957.59
2018-04-08T01:44:04.664Z,957.65
2018-04-08T01:45:04.657Z,957.62
2018-04-08T01:46:04.658Z,957.61
2018-04-08T01:47:04.653Z,957.58
2018-04-08T01:48:04.654Z,957.58
2018-04-08T01:49:04.653Z,957.57
2018-04-08T01:50:04.651Z,957.62
2018-04-08T01:51:04.654Z,957.61
2018-04-08T01:52:04.651Z,957.56
2018-04-08T01:53:04.649Z,957.61
2018-04-08T01:54:04.646Z,957.60
2018-04-08T01:55:04.644Z,957.62
2018-04-08T01:56:04.644Z,957.58
2018-04-08T01:57:04.641Z,957.58
2018-04-08T01:58:04.639Z,957.54
2018-04-08T01:59:04.639Z,957.57
2018-04-08T02:00:04.635Z,957.56
2018-04-08T02:01:04.635Z,957.55
2018-04-08T02:02:04.637Z,957.53
2018-04-08T02:03:04.634Z,957.60
2018-04-08T02:04:04.638Z,957.53
2018-04-08T02:05:04.630Z,957.62
2018-04-08T02:06:04.628Z,957.55
2018-04-08T02:07:04.629Z,957.55
2018-04-08T02:08:04.625Z,957.62
2018-04-08T02:09:04.628Z,957.58
2018-04-08T02:10:04.624Z,957.60
2018-04-08T02:11:04.625Z,957.57
2018-04-08T02:12:04.622Z,957.54
2018-04-08T02:13:04.620Z,957.48
2018-04-08T02:14:04.617Z,957.50
2018-04-08T02:15:04.619Z,957.43
2018-04-08T02:16:04.616Z,957.41
2018-04-08T02:17:04.615Z,957.46
2018-04-08T02:18:04.613Z,957.41
2018-04-08T02:19:04.619Z,957.48
2018-04-08T02:20:04.613Z,957.46
2018-04-08T02:21:04.633Z,957.48
2018-04-08T02:22:04.609Z,957.52
2018-04-08T02:23:04.609Z,957.48
2018-04-08T02:24:04.607Z,957.47
2018-04-08T02:25:04.605Z,957.46
2018-04-08T02:26:04.606Z,957.46
2018-04-08T02:27:04.604Z,957.46
2018-04-08T02:28:04.602Z,957.43
2018-04-08T02:29:04.601Z,957.45
2018-04-08T02:30:04.601Z,957.41
2018-04-08T02:31:04.599Z,957.39
2018-04-08T02:32:04.599Z,957.38
2018-04-08T02:33:04.599Z,957.43
2018-04-08T02:34:04.595Z,957.44
2018-04-08T02:35:04.596Z,957.41
2018-04-08T02:36:04.599Z,957.42
2018-04-08T02:37:04.597Z,957.40
2018-04-08T02:38:04.588Z,957.43
2018-04-08T02:39:04.592Z,957.39
2018-04-08T02:40:04.591Z,957.36
2018-04-08T02:41:04.590Z,957.38
2018-04-08T02:42:04.590Z,957.37
2018-04-08T02:43:04.587Z,957.38
2018-04-08T02:44:04.589Z,957.37
2018-04-08T02:45:04.591Z,957.39
2018-04-08T02:46:04.584Z,957.34
2018-04-08T02:47:04.584Z,957.36
2018-04-08T02:48:04.585Z,957.31
2018-04-08T02:49:04.582Z,957.33
2018-04-08T02:50:04.587Z,957.28
2018-04-08T02:51:04.579Z,957.32
2018-04-08T02:52:04.580Z,957.31
2018-04-08T02:53:04.580Z,957.36
2018-04-08T02:54:04.577Z,957.39
2018-04-08T02:55:04.578Z,957.40
2018-04-08T02:56:04.579Z,957.34
2018-04-08T02:57:04.576Z,957.41
2018-04-08T02:58:04.573Z,957.40
2018-04-08T02:59:04.571Z,957.47
2018-04-08T03:00:04.574Z,957.40
2018-04-08T03:01:04.572Z,957.42
2018-04-08T03:02:04.570Z,957.42
2018-04-08T03:03:04.569Z,957.44
2018-04-08T03:04:04.569Z,957.46
2018-04-08T03:05:04.566Z,957.44
2018-04-08T03:06:04.564Z,957.41
2018-04-08T03:07:04.570Z,957.40
2018-04-08T03:08:04.564Z,957.39
2018-04-08T03:09:04.564Z,957.43
2018-04-08T03:10:04.574Z,957.43
2018-04-08T03:11:04.561Z,957.41
2018-04-08T03:12:04.562Z,957.44
2018-04-08T03:13:04.561Z,957.45
2018-04-08T03:14:04.560Z,957.43
2018-04-08T03:15:04.559Z,957.42
2018-04-08T03:16:04.557Z,957.39
2018-04-08T03:17:04.556Z,957.40
2018-04-08T03:18:04.555Z,957.39
2018-04-08T03:19:04.554Z,957.43
2018-04-08T03:20:04.553Z,957.42
2018-04-08T03:21:04.550Z,957.41
2018-04-08T03:22:04.558Z,957.43
2018-04-08T03:23:04.550Z,957.40
2018-04-08T03:24:04.552Z,957.42
2018-04-08T03:25:04.548Z,957.43
2018-04-08T03:26:04.554Z,957.39
2018-04-08T03:27:04.549Z,957.40
2018-04-08T03:28:04.544Z,957.44
2018-04-08T03:29:04.546Z,957.43
2018-04-08T03:30:04.544Z,957.37
2018-04-08T03:31:04.545Z,957.42
2018-04-08T03:32:04.541Z,957.41
2018-04-08T03:33:04.542Z,957.43
2018-04-08T03:34:04.539Z,957.41
2018-04-08T03:35:04.535Z,957.42
2018-04-08T03:36:04.542Z,957.43
2018-04-08T03:37:04.536Z,957.43
2018-04-08T03:38:04.534Z,957.40
2018-04-08T03:39:04.534Z,957.38
2018-04-08T03:40:04.532Z,957.37
2018-04-08T03:41:04.533Z,957.41
2018-04-08T03:42:04.530Z,957.43
2018-04-08T03:43:04.530Z,957.40
2018-04-08T03:44:04.528Z,957.44
2018-04-08T03:45:04.531Z,957.44
2018-04-08T03:46:04.528Z,957.40
2018-04-08T03:47:04.524Z,957.40
2018-04-08T03:48:04.526Z,957.37
2018-04-08T03:49:04.525Z,957.33
2018-04-08T03:50:04.521Z,957.34
2018-04-08T03:51:04.520Z,957.38
2018-04-08T03:52:04.519Z,957.38
2018-04-08T03:53:04.519Z,957.33
2018-04-08T03:54:04.517Z,957.32
2018-04-08T03:55:04.521Z,957.34
2018-04-08T03:56:04.515Z,957.35
2018-04-08T03:57:04.517Z,957.42
2018-04-08T03:58:04.511Z,957.32
2018-04-08T03:59:04.510Z,957.35
2018-04-08T04:00:04.510Z,957.32
2018-04-08T04:01:04.509Z,957.36
2018-04-08T04:02:04.511Z,957.33
2018-04-08T04:03:04.513Z,957.31
2018-04-08T04:04:04.509Z,957.36
2018-04-08T04:05:04.505Z,957.32
2018-04-08T04:06:04.504Z,957.32
2018-04-08T04:07:04.502Z,957.34
2018-04-08T04:08:04.501Z,957.33
2018-04-08T04:09:04.499Z,957.35
2018-04-08T04:10:04.497Z,957.33
2018-04-08T04:11:04.498Z,957.27
2018-04-08T04:12:04.496Z,957.30
2018-04-08T04:13:04.495Z,957.31
2018-04-08T04:14:04.491Z,957.31
2018-04-08T04:15:04.494Z,957.29
2018-04-08T04:16:04.490Z,957.29
2018-04-08T04:17:04.495Z,957.28
2018-04-08T04:18:04.489Z,957.24
2018-04-08T04:19:04.486Z,957.22
2018-04-08T04:20:04.486Z,957.22
2018-04-08T04:21:04.484Z,957.23
2018-04-08T04:22:04.487Z,957.20
2018-04-08T04:23:04.482Z,957.22
2018-04-08T04:24:04.482Z,957.16
2018-04-08T04:25:04.481Z,957.16
2018-04-08T04:26:04.476Z,957.19
2018-04-08T04:27:04.481Z,957.16
2018-04-08T04:28:04.475Z,957.18
2018-04-08T04:29:04.473Z,957.16
2018-04-08T04:30:04.470Z,957.18
2018-04-08T04:31:04.471Z,957.16
2018-04-08T04:32:04.469Z,957.17
2018-04-08T04:33:04.468Z,957.15
2018-04-08T04:34:04.467Z,957.15
2018-04-08T04:35:04.467Z,957.15
2018-04-08T04:36:04.466Z,957.14
2018-04-08T04:37:04.462Z,957.19
2018-04-08T04:38:04.461Z,957.19
2018-04-08T04:39:04.459Z,957.18
2018-04-08T04:40:04.460Z,957.20
2018-04-08T04:41:04.456Z,957.17
2018-04-08T04:42:04.458Z,957.18
2018-04-08T04:43:04.456Z,957.18
2018-04-08T04:44:04.453Z,957.22
2018-04-08T04:45:04.456Z,957.23
2018-04-08T04:46:04.451Z,957.21
2018-04-08T04:47:04.447Z,957.23
2018-04-08T04:48:04.446Z,957.25
2018-04-08T04:49:04.448Z,957.28
2018-04-08T04:50:04.445Z,957.27
2018-04-08T04:51:04.442Z,957.26
2018-04-08T04:52:04.443Z,957.24
2018-04-08T04:53:04.440Z,957.24
2018-04-08T04:54:04.437Z,957.23
2018-04-08T04:55:04.437Z,957.26
2018-04-08T04:56:04.437Z,957.28
2018-04-08T04:57:04.437Z,957.26
2018-04-08T04:58:04.438Z,957.22
2018-04-08T04:59:04.431Z,957.21
2018-04-08T05:00:04.429Z,957.27
2018-04-08T05:01:04.433Z,957.27
2018-04-08T05:02:04.426Z,957.27
2018-04-08T05:03:04.425Z,957.25
2018-04-08T05:04:04.430Z,957.25
2018-04-08T05:05:04.421Z,957.27
2018-04-08T05:06:04.426Z,957.25
2018-04-08T05:07:04.417Z,957.22
2018-04-08T05:08:04.415Z,957.24
2018-04-08T05:09:04.414Z,957.29
2018-04-08T05:10:04.411Z,957.25
2018-04-08T05:11:04.408Z,957.23
2018-04-08T05:12:04.409Z,957.19
2018-04-08T05:13:04.406Z,957.22
2018-04-08T05:14:04.402Z,957.23
2018-04-08T05:15:04.408Z,957.22
2018-04-08T05:16:04.401Z,957.21
2018-04-08T05:17:04.400Z,957.21
2018-04-08T05:18:04.398Z,957.24
2018-04-08T05:19:04.402Z,957.23
2018-04-08T05:20:04.394Z,957.18
2018-04-08T05:21:04.392Z,957.18
2018-04-08T05:22:04.388Z,957.20
2018-04-08T05:23:04.427Z,957.23
2018-04-08T05:24:04.384Z,957.21
2018-04-08T05:25:04.386Z,957.16
2018-04-08T05:26:04.382Z,957.22
2018-04-08T05:27:04.381Z,957.20
2018-04-08T05:28:04.382Z,957.19
2018-04-08T05:29:04.377Z,957.21
2018-04-08T05:30:04.373Z,957.23
2018-04-08T05:31:04.380Z,957.25
2018-04-08T05:32:04.372Z,957.25
2018-04-08T05:33:04.369Z,957.25
2018-04-08T05:34:04.367Z,957.32
2018-04-08T05:35:04.364Z,957.26
2018-04-08T05:36:04.363Z,957.29
2018-04-08T05:37:04.364Z,957.28
2018-04-08T05:38:04.359Z,957.30
2018-04-08T05:39:04.357Z,957.29
2018-04-08T05:40:04.356Z,957.24
2018-04-08T05:41:04.388Z,957.30
2018-04-08T05:42:04.350Z,957.26
2018-04-08T05:43:04.348Z,957.29
2018-04-08T05:44:04.350Z,957.31
2018-04-08T05:45:04.348Z,957.28
2018-04-08T05:46:04.344Z,957.22
2018-04-08T05:47:04.344Z,957.27
2018-04-08T05:48:04.341Z,957.22
2018-04-08T05:49:04.339Z,957.25
2018-04-08T05:50:04.336Z,957.26
2018-04-08T05:51:04.336Z,957.28
2018-04-08T05:52:04.337Z,957.29
2018-04-08T05:53:04.331Z,957.29
2018-04-08T05:54:04.330Z,957.31
2018-04-08T05:55:04.327Z,957.26
2018-04-08T05:56:04.333Z,957.26
2018-04-08T05:57:04.329Z,957.29
2018-04-08T05:58:04.367Z,957.27
2018-04-08T05:59:04.322Z,957.26
2018-04-08T06:00:04.326Z,957.24
2018-04-08T06:01:04.326Z,957.29
2018-04-08T06:02:04.319Z,957.26
2018-04-08T06:03:04.318Z,957.29
2018-04-08T06:04:04.313Z,957.28
2018-04-08T06:05:04.313Z,957.27
2018-04-08T06:06:04.313Z,957.30
2018-04-08T06:07:04.312Z,957.30
2018-04-08T06:08:04.309Z,957.32
2018-04-08T06:09:04.311Z,957.34
2018-04-08T06:10:04.407Z,957.29
2018-04-08T06:11:04.305Z,957.28
2018-04-08T06:12:04.306Z,957.30
2018-04-08T06:13:04.302Z,957.32
2018-04-08T06:14:04.302Z,957.29
2018-04-08T06:15:04.301Z,957.27
2018-04-08T06:16:04.298Z,957.30
2018-04-08T06:17:04.301Z,957.34
2018-04-08T06:18:04.294Z,957.32
2018-04-08T06:19:04.294Z,957.31
2018-04-08T06:20:04.293Z,957.28
2018-04-08T06:21:04.293Z,957.28
2018-04-08T06:22:04.298Z,957.31
2018-04-08T06:23:04.294Z,957.31
2018-04-08T06:24:04.290Z,957.35
2018-04-08T06:25:04.290Z,957.30
2018-04-08T06:26:04.286Z,957.33
2018-04-08T06:27:04.285Z,957.28
2018-04-08T06:28:04.312Z,957.29
2018-04-08T06:29:04.284Z,957.34
2018-04-08T06:30:04.282Z,957.37
2018-04-08T06:31:04.283Z,957.30
2018-04-08T06:32:04.281Z,957.34
2018-04-08T06:33:04.281Z,957.24
2018-04-08T06:34:04.282Z,957.35
2018-04-08T06:35:04.290Z,957.37
2018-04-08T06:36:04.280Z,957.35
2018-04-08T06:37:04.281Z,957.38
2018-04-08T06:38:04.281Z,957.39
2018-04-08T06:39:04.280Z,957.41
2018-04-08T06:40:04.283Z,957.40
2018-04-08T06:41:04.280Z,957.43
2018-04-08T06:42:04.286Z,957.41
2018-04-08T06:43:04.285Z,957.41
2018-04-08T06:44:04.288Z,957.40
2018-04-08T06:45:04.288Z,957.40
2018-04-08T06:46:04.293Z,957.46
2018-04-08T06:47:04.293Z,957.41
2018-04-08T06:48:04.298Z,957.44
2018-04-08T06:49:04.300Z,957.38
2018-04-08T06:50:04.306Z,957.38
2018-04-08T06:51:04.310Z,957.43
2018-04-08T06:52:04.312Z,957.42
2018-04-08T06:53:04.318Z,957.36
2018-04-08T06:54:04.321Z,957.39
2018-04-08T06:55:04.327Z,957.39
2018-04-08T06:56:04.331Z,957.40
2018-04-08T06:57:04.337Z,957.41
2018-04-08T06:58:04.343Z,957.42
2018-04-08T06:59:04.348Z,957.40
2018-04-08T07:00:04.356Z,957.41
2018-04-08T07:01:04.366Z,957.45
2018-04-08T07:02:04.368Z,957.48
2018-04-08T07:03:04.375Z,957.47
2018-04-08T07:04:04.384Z,957.47
2018-04-08T07:05:04.393Z,957.41
2018-04-08T07:06:04.396Z,957.43
2018-04-08T07:07:04.400Z,957.44
2018-04-08T07:08:04.409Z,957.44
2018-04-08T07:09:04.415Z,957.42
2018-04-08T07:10:04.423Z,957.42
2018-04-08T07:11:04.429Z,957.50
2018-04-08T07:12:04.452Z,957.47
2018-04-08T07:13:04.447Z,957.47
2018-04-08T07:14:04.457Z,957.44
2018-04-08T07:15:04.463Z,957.44
2018-04-08T07:16:04.473Z,957.44
2018-04-08T07:17:04.485Z,957.48
2018-04-08T07:18:04.491Z,957.49
2018-04-08T07:19:04.497Z,957.49
2018-04-08T07:20:04.506Z,957.48
2018-04-08T07:21:04.517Z,957.51
2018-04-08T07:22:04.521Z,957.51
2018-04-08T07:23:04.557Z,957.54
2018-04-08T07:24:04.543Z,957.51
2018-04-08T07:25:04.555Z,957.51
2018-04-08T07:26:04.565Z,957.50
2018-04-08T07:27:04.574Z,957.48
2018-04-08T07:28:04.581Z,957.48
2018-04-08T07:29:04.592Z,957.51
2018-04-08T07:30:04.602Z,957.46
2018-04-08T07:31:04.610Z,957.49
2018-04-08T07:32:04.619Z,957.47
2018-04-08T07:33:04.660Z,957.49
2018-04-08T07:34:04.639Z,957.46
2018-04-08T07:35:04.653Z,957.50
2018-04-08T07:36:04.662Z,957.51
2018-04-08T07:37:04.671Z,957.49
2018-04-08T07:38:04.686Z,957.50
2018-04-08T07:39:04.694Z,957.51
2018-04-08T07:40:04.703Z,957.50
2018-04-08T07:41:04.716Z,957.51
2018-04-08T07:42:04.725Z,957.53
2018-04-08T07:43:04.750Z,957.47
2018-04-08T07:44:04.748Z,957.50
2018-04-08T07:45:04.808Z,957.52
2018-04-08T07:46:04.772Z,957.51
2018-04-08T07:47:04.823Z,957.54
2018-04-08T07:48:04.798Z,957.53
2018-04-08T07:49:04.809Z,957.53
2018-04-08T07:50:04.817Z,957.55
2018-04-08T07:51:04.829Z,957.53
2018-04-08T07:52:04.841Z,957.52
2018-04-08T07:53:04.852Z,957.52
2018-04-08T07:54:04.865Z,957.51
2018-04-08T07:55:04.878Z,957.51
2018-04-08T07:56:04.890Z,957.52
2018-04-08T07:57:04.903Z,957.54
2018-04-08T07:58:04.921Z,957.54
2018-04-08T07:59:04.953Z,957.56
2018-04-08T08:00:04.941Z,957.54
2018-04-08T08:01:04.954Z,957.53
2018-04-08T08:02:04.966Z,957.51
2018-04-08T08:03:04.977Z,957.50
2018-04-08T08:04:04.995Z,957.51
2018-04-08T08:05:05.003Z,957.52
2018-04-08T08:06:05.015Z,957.50
2018-04-08T08:07:05.031Z,957.45
2018-04-08T08:08:05.042Z,957.41
2018-04-08T08:09:05.056Z,957.42
2018-04-08T08:10:05.070Z,957.35
2018-04-08T08:11:05.081Z,957.31
2018-04-08T08:12:05.095Z,957.32
2018-04-08T08:13:05.110Z,957.34
2018-04-08T08:14:05.141Z,957.29
2018-04-08T08:15:05.135Z,957.27
2018-04-08T08:16:05.146Z,957.27
2018-04-08T08:17:05.160Z,957.27
2018-04-08T08:18:05.173Z,957.23
2018-04-08T08:19:05.186Z,957.25
2018-04-08T08:20:05.199Z,957.27
2018-04-08T08:21:05.212Z,957.24
2018-04-08T08:22:05.223Z,957.22
2018-04-08T08:23:05.284Z,957.22
2018-04-08T08:24:05.248Z,957.26
2018-04-08T08:25:05.261Z,957.24
2018-04-08T08:26:05.275Z,957.26
2018-04-08T08:27:05.297Z,957.23
2018-04-08T08:28:05.299Z,957.25
2018-04-08T08:29:05.312Z,957.21
2018-04-08T08:30:05.322Z,957.24
2018-04-08T08:31:05.345Z,957.26
2018-04-08T08:32:05.352Z,957.20
2018-04-08T08:33:05.384Z,957.20
2018-04-08T08:34:05.370Z,957.19
2018-04-08T08:35:05.386Z,957.18
2018-04-08T08:36:05.391Z,957.19
2018-04-08T08:37:05.403Z,957.16
2018-04-08T08:38:05.413Z,957.14
2018-04-08T08:39:05.425Z,957.11
2018-04-08T08:40:05.433Z,957.12
2018-04-08T08:41:05.442Z,957.11
2018-04-08T08:42:05.459Z,957.13
2018-04-08T08:43:05.477Z,957.10
2018-04-08T08:44:05.484Z,957.09
2018-04-08T08:45:05.484Z,957.07
2018-04-08T08:46:05.492Z,957.08
2018-04-08T08:47:05.510Z,957.04
2018-04-08T08:48:05.513Z,957.06
2018-04-08T08:49:05.521Z,957.03
2018-04-08T08:50:05.530Z,957.03
2018-04-08T08:51:05.545Z,957.06
2018-04-08T08:52:05.550Z,957.04
2018-04-08T08:53:05.558Z,957.05
2018-04-08T08:54:05.565Z,957.04
2018-04-08T08:55:05.588Z,957.05
2018-04-08T08:56:05.584Z,957.03
2018-04-08T08:57:05.593Z,957.06
2018-04-08T08:58:05.602Z,957.06
2018-04-08T08:59:05.612Z,957.07
2018-04-08T09:00:05.620Z,957.05
2018-04-08T09:01:05.636Z,957.04
2018-04-08T09:02:05.638Z,957.06
2018-04-08T09:03:05.645Z,957.04
2018-04-08T09:04:05.658Z,957.03
2018-04-08T09:05:05.663Z,957.05
2018-04-08T09:06:05.670Z,957.06
2018-04-08T09:07:05.681Z,957.04
2018-04-08T09:08:05.690Z,957.06
2018-04-08T09:09:05.699Z,957.04
2018-04-08T09:10:05.709Z,957.08
2018-04-08T09:11:05.715Z,957.07
2018-04-08T09:12:05.773Z,957.07
2018-04-08T09:13:05.736Z,957.06
2018-04-08T09:14:05.740Z,957.07
2018-04-08T09:15:05.749Z,957.11
2018-04-08T09:16:05.760Z,957.09
2018-04-08T09:17:05.772Z,957.08
2018-04-08T09:18:05.779Z,957.08
2018-04-08T09:19:05.788Z,957.06
2018-04-08T09:20:05.795Z,957.03
2018-04-08T09:21:05.802Z,957.06
2018-04-08T09:22:05.832Z,957.06
2018-04-08T09:23:05.822Z,957.04
2018-04-08T09:24:05.840Z,957.05
2018-04-08T09:25:05.843Z,957.05
2018-04-08T09:26:05.854Z,957.06
2018-04-08T09:27:05.862Z,957.07
2018-04-08T09:28:05.870Z,957.10
2018-04-08T09:29:05.887Z,957.13
2018-04-08T09:30:05.898Z,957.12
2018-04-08T09:31:05.905Z,957.13
2018-04-08T09:32:05.919Z,957.15
2018-04-08T09:33:05.936Z,957.14
2018-04-08T09:34:05.937Z,957.12
2018-04-08T09:35:05.958Z,957.18
2018-04-08T09:36:05.967Z,957.15
2018-04-08T09:37:05.977Z,957.15
2018-04-08T09:38:05.988Z,957.13
2018-04-08T09:39:06.002Z,957.12
2018-04-08T09:40:06.026Z,957.09
2018-04-08T09:41:06.029Z,957.08
2018-04-08T09:42:06.042Z,957.09
2018-04-08T09:43:06.056Z,957.10
2018-04-08T09:44:06.070Z,957.10
2018-04-08T09:45:06.102Z,957.09
2018-04-08T09:46:06.097Z,957.12
2018-04-08T09:47:06.112Z,957.11
2018-04-08T09:48:06.129Z,957.03
2018-04-08T09:49:06.181Z,957.10
2018-04-08T09:50:06.156Z,957.07
2018-04-08T09:51:06.173Z,957.05
2018-04-08T09:52:06.186Z,957.04
2018-04-08T09:53:06.199Z,957.06
2018-04-08T09:54:06.211Z,957.05
2018-04-08T09:55:06.250Z,957.00
2018-04-08T09:56:06.239Z,957.06
2018-04-08T09:57:06.256Z,957.00
2018-04-08T09:58:06.267Z,957.04
2018-04-08T09:59:06.280Z,957.02
2018-04-08T10:00:06.292Z,956.96
2018-04-08T10:01:06.405Z,957.03
2018-04-08T10:02:06.322Z,956.99
2018-04-08T10:03:06.335Z,957.00
2018-04-08T10:04:06.344Z,956.97
2018-04-08T10:05:06.358Z,956.95
2018-04-08T10:06:06.365Z,956.94
2018-04-08T10:07:06.380Z,956.92
2018-04-08T10:08:06.425Z,956.91
2018-04-08T10:09:06.401Z,956.90
2018-04-08T10:10:06.418Z,956.88
2018-04-08T10:11:06.429Z,956.87
2018-04-08T10:12:06.442Z,956.89
2018-04-08T10:13:06.447Z,956.90
2018-04-08T10:14:06.455Z,956.87
2018-04-08T10:15:06.467Z,956.88
2018-04-08T10:16:06.627Z,956.87
2018-04-08T10:17:06.488Z,956.83
2018-04-08T10:18:06.507Z,956.86
2018-04-08T10:19:06.508Z,956.85
2018-04-08T10:20:06.546Z,956.84
2018-04-08T10:21:06.532Z,956.82
2018-04-08T10:22:06.543Z,956.81
2018-04-08T10:23:06.550Z,956.85
2018-04-08T10:24:06.564Z,956.81
2018-04-08T10:25:06.588Z,956.81
2018-04-08T10:26:06.583Z,956.80
2018-04-08T10:27:06.593Z,956.74
2018-04-08T10:28:06.603Z,956.77
2018-04-08T10:29:06.660Z,956.79
2018-04-08T10:30:06.632Z,956.78
2018-04-08T10:31:06.637Z,956.78
2018-04-08T10:32:06.644Z,956.77
2018-04-08T10:33:06.653Z,956.74
2018-04-08T10:34:06.662Z,956.71
2018-04-08T10:35:06.674Z,956.70
2018-04-08T10:36:06.682Z,956.68
2018-04-08T10:37:06.691Z,956.73
2018-04-08T10:38:06.698Z,956.70
2018-04-08T10:39:06.708Z,956.67
2018-04-08T10:40:06.722Z,956.67
2018-04-08T10:41:06.730Z,956.67
2018-04-08T10:42:06.740Z,956.67
2018-04-08T10:43:06.745Z,956.67
2018-04-08T10:44:06.758Z,956.61
2018-04-08T10:45:07.355Z,956.59
2018-04-08T10:46:06.775Z,956.60
2018-04-08T10:47:06.798Z,956.62
2018-04-08T10:48:06.796Z,956.58
2018-04-08T10:49:06.802Z,956.58
2018-04-08T10:50:06.813Z,956.60
2018-04-08T10:51:06.823Z,956.59
2018-04-08T10:52:06.831Z,956.62
2018-04-08T10:53:06.867Z,956.62
2018-04-08T10:54:06.861Z,956.62
2018-04-08T10:55:06.858Z,956.61
2018-04-08T10:56:06.870Z,956.61
2018-04-08T10:57:06.878Z,956.62
2018-04-08T10:58:06.902Z,956.61
2018-04-08T10:59:06.898Z,956.61
2018-04-08T11:00:06.907Z,956.59
2018-04-08T11:01:06.945Z,956.56
2018-04-08T11:02:06.922Z,956.55
2018-04-08T11:03:06.938Z,956.53
2018-04-08T11:04:06.940Z,956.54
2018-04-08T11:05:06.950Z,956.50
2018-04-08T11:06:06.959Z,956.52
2018-04-08T11:07:06.974Z,956.52
2018-04-08T11:08:06.978Z,956.49
2018-04-08T11:09:07.003Z,956.48
2018-04-08T11:10:06.994Z,956.50
2018-04-08T11:11:07.004Z,956.46
2018-04-08T11:12:07.011Z,956.48
2018-04-08T11:13:07.021Z,956.38
2018-04-08T11:14:07.033Z,956.40
2018-04-08T11:15:07.039Z,956.41
2018-04-08T11:16:07.048Z,956.42
2018-04-08T11:17:07.059Z,956.40
2018-04-08T11:18:07.065Z,956.40
2018-04-08T11:19:07.075Z,956.40
2018-04-08T11:20:07.084Z,956.38
2018-04-08T11:21:07.097Z,956.37
2018-04-08T11:22:07.102Z,956.38
2018-04-08T11:23:07.112Z,956.37
2018-04-08T11:24:07.119Z,956.41
2018-04-08T11:25:07.128Z,956.37
2018-04-08T11:26:07.151Z,956.33
2018-04-08T11:27:07.145Z,956.31
2018-04-08T11:28:07.154Z,956.33
2018-04-08T11:29:07.163Z,956.30
2018-04-08T11:30:07.170Z,956.26
2018-04-08T11:31:07.182Z,956.30
2018-04-08T11:32:07.188Z,956.26
2018-04-08T11:33:07.201Z,956.26
2018-04-08T11:34:07.206Z,956.24
2018-04-08T11:35:07.215Z,956.20
2018-04-08T11:36:07.222Z,956.21
2018-04-08T11:37:07.314Z,956.20
2018-04-08T11:38:07.239Z,956.23
2018-04-08T11:39:07.251Z,956.21
2018-04-08T11:40:07.258Z,956.21
2018-04-08T11:41:07.286Z,956.21
2018-04-08T11:42:07.277Z,956.22
2018-04-08T11:43:07.284Z,956.21
2018-04-08T11:44:07.292Z,956.21
2018-04-08T11:45:07.303Z,956.20
2018-04-08T11:46:07.309Z,956.17
2018-04-08T11:47:07.317Z,956.18
2018-04-08T11:48:07.358Z,956.14
2018-04-08T11:49:07.340Z,956.15
2018-04-08T11:50:07.345Z,956.11
2018-04-08T11:51:07.357Z,956.18
2018-04-08T11:52:07.360Z,956.13
2018-04-08T11:53:07.372Z,956.12
2018-04-08T11:54:07.378Z,956.13
2018-04-08T11:55:07.390Z,956.11
2018-04-08T11:56:07.396Z,956.07
2018-04-08T11:57:07.404Z,956.10
2018-04-08T11:58:07.476Z,956.06
2018-04-08T11:59:07.432Z,956.08
2018-04-08T12:00:07.433Z,956.05
2018-04-08T12:01:07.441Z,955.99
2018-04-08T12:02:07.465Z,956.03
2018-04-08T12:03:07.458Z,956.02
2018-04-08T12:04:07.467Z,956.00
2018-04-08T12:05:07.473Z,955.96
2018-04-08T12:06:07.483Z,955.95
2018-04-08T12:07:07.492Z,955.96
2018-04-08T12:08:07.504Z,955.94
2018-04-08T12:09:07.519Z,956.00
2018-04-08T12:10:07.529Z,955.95
2018-04-08T12:11:07.530Z,955.95
2018-04-08T12:12:07.536Z,955.90
2018-04-08T12:13:07.599Z,955.86
2018-04-08T12:14:07.553Z,955.93
2018-04-08T12:15:07.605Z,955.92
2018-04-08T12:16:07.569Z,955.87
2018-04-08T12:17:07.585Z,955.90
2018-04-08T12:18:07.605Z,955.88
2018-04-08T12:19:07.596Z,955.88
2018-04-08T12:20:07.604Z,955.85
2018-04-08T12:21:07.612Z,955.85
2018-04-08T12:22:07.620Z,955.82
2018-04-08T12:23:07.628Z,955.78
2018-04-08T12:24:07.640Z,955.78
2018-04-08T12:25:07.645Z,955.76
2018-04-08T12:26:07.660Z,955.74
2018-04-08T12:27:07.664Z,955.78
2018-04-08T12:28:07.681Z,955.75